createdAt,value
2019-04-27T00:00:46.899Z,18.40
2019-04-27T00:03:19.429Z,18.40
2019-04-27T00:05:56.123Z,18.40
2019-04-27T00:08:39.215Z,18.30
2019-04-27T00:11:13.630Z,18.30
2019-04-27T00:13:43.943Z,18.30
2019-04-27T00:16:33.745Z,18.20
2019-04-27T00:19:20.997Z,18.20
2019-04-27T00:22:08.055Z,18.20
2019-04-27T00:24:37.420Z,18.20
2019-04-27T00:27:06.774Z,18.20
2019-04-27T00:29:36.028Z,18.20
2019-04-27T00:32:05.890Z,18.10
2019-04-27T00:34:35.227Z,18.10
2019-04-27T00:37:25.451Z,18.10
2019-04-27T00:40:04.392Z,18.10
2019-04-27T00:42:35.607Z,18.00
2019-04-27T00:45:05.913Z,18.00
2019-04-27T00:47:35.262Z,17.90
2019-04-27T00:50:05.218Z,17.80
2019-04-27T00:52:34.909Z,17.80
2019-04-27T00:55:04.430Z,17.80
2019-04-27T00:57:59.014Z,17.80
2019-04-27T01:00:47.473Z,17.80
2019-04-27T01:03:23.635Z,17.80
2019-04-27T01:05:53.199Z,17.80
2019-04-27T01:08:23.013Z,17.80
2019-04-27T01:10:53.778Z,17.80
2019-04-27T01:13:23.129Z,17.80
2019-04-27T01:15:54.044Z,17.80
2019-04-27T01:18:23.339Z,17.80
2019-04-27T01:20:52.610Z,17.70
2019-04-27T01:23:21.931Z,17.70
2019-04-27T01:26:09.762Z,17.70
2019-04-27T01:28:45.534Z,17.70
2019-04-27T01:31:15.254Z,17.60
2019-04-27T01:33:44.499Z,17.60
2019-04-27T01:36:13.733Z,17.60
2019-04-27T01:38:43.045Z,17.50
2019-04-27T01:41:12.291Z,17.40
2019-04-27T01:43:41.563Z,17.40
2019-04-27T01:46:11.291Z,17.30
2019-04-27T01:48:40.604Z,17.30
2019-04-27T01:51:09.911Z,17.20
2019-04-27T01:53:39.279Z,17.20
2019-04-27T01:56:09.211Z,17.20
2019-04-27T01:58:39.348Z,17.30
2019-04-27T02:01:34.155Z,17.20
2019-04-27T02:04:19.204Z,17.20
2019-04-27T02:06:50.531Z,17.20
2019-04-27T02:09:20.945Z,17.20
2019-04-27T02:11:50.246Z,17.20
2019-04-27T02:14:19.706Z,17.10
2019-04-27T02:16:49.338Z,17.10
2019-04-27T02:19:19.415Z,17.20
2019-04-27T02:21:51.117Z,17.20
2019-04-27T02:24:19.897Z,17.20
2019-04-27T02:26:49.715Z,17.20
2019-04-27T02:29:29.205Z,17.20
2019-04-27T02:32:10.495Z,17.20
2019-04-27T02:35:00.100Z,17.30
2019-04-27T02:37:30.440Z,17.30
2019-04-27T02:40:00.425Z,17.30
2019-04-27T02:42:35.412Z,17.30
2019-04-27T02:45:05.283Z,17.30
2019-04-27T02:47:35.100Z,17.30
2019-04-27T02:50:04.436Z,17.30
2019-04-27T02:52:40.444Z,17.30
2019-04-27T02:55:09.816Z,17.30
2019-04-27T02:57:39.923Z,17.30
2019-04-27T03:00:10.609Z,17.20
2019-04-27T03:02:54.323Z,17.20
2019-04-27T03:05:26.781Z,17.30
2019-04-27T03:07:59.685Z,17.30
2019-04-27T03:10:31.304Z,17.30
2019-04-27T03:13:20.175Z,17.30
2019-04-27T03:16:23.791Z,17.30
2019-04-27T03:19:18.174Z,17.30
2019-04-27T03:22:02.448Z,17.20
2019-04-27T03:24:49.902Z,17.10
2019-04-27T03:27:21.356Z,17.10
2019-04-27T03:29:50.707Z,17.10
2019-04-27T03:32:22.665Z,17.00
2019-04-27T03:34:52.480Z,17.00
2019-04-27T03:37:21.865Z,16.90
2019-04-27T03:39:51.156Z,16.90
2019-04-27T03:42:20.902Z,16.90
2019-04-27T03:44:50.591Z,16.80
2019-04-27T03:47:20.093Z,16.80
2019-04-27T03:49:50.637Z,16.70
2019-04-27T03:52:32.402Z,16.70
2019-04-27T03:55:26.941Z,16.60
2019-04-27T03:58:02.087Z,16.60
2019-04-27T04:00:31.442Z,16.60
2019-04-27T04:03:00.793Z,16.60
2019-04-27T04:05:30.241Z,16.60
2019-04-27T04:08:00.452Z,16.50
2019-04-27T04:10:31.720Z,16.50
2019-04-27T04:13:06.492Z,16.50
2019-04-27T04:15:42.577Z,16.40
2019-04-27T04:18:11.914Z,16.40
2019-04-27T04:20:41.138Z,16.40
2019-04-27T04:23:10.815Z,16.30
2019-04-27T04:25:40.992Z,16.30
2019-04-27T04:28:10.538Z,16.20
2019-04-27T04:30:40.397Z,16.20
2019-04-27T04:33:10.457Z,16.10
2019-04-27T04:35:40.152Z,16.10
2019-04-27T04:38:10.344Z,16.10
2019-04-27T04:40:45.755Z,16.00
2019-04-27T04:43:39.778Z,16.00
2019-04-27T04:46:40.261Z,16.00
2019-04-27T04:49:09.640Z,15.90
2019-04-27T04:51:40.202Z,15.90
2019-04-27T04:54:09.647Z,15.90
2019-04-27T04:56:39.353Z,15.80
2019-04-27T04:59:10.117Z,15.80
2019-04-27T05:01:40.001Z,15.80
2019-04-27T05:04:09.412Z,15.80
2019-04-27T05:06:39.045Z,15.80
2019-04-27T05:09:09.298Z,15.80
2019-04-27T05:11:39.611Z,15.80
2019-04-27T05:14:09.829Z,15.80
2019-04-27T05:16:39.201Z,15.90
2019-04-27T05:19:11.032Z,15.80
2019-04-27T05:21:39.310Z,15.90
2019-04-27T05:24:09.364Z,15.90
2019-04-27T05:26:39.702Z,15.80
2019-04-27T05:29:09.304Z,15.90
2019-04-27T05:31:38.948Z,15.80
2019-04-27T05:34:09.527Z,15.90
2019-04-27T05:36:41.825Z,15.90
2019-04-27T05:39:13.067Z,15.90
2019-04-27T05:41:41.743Z,15.80
2019-04-27T05:44:33.079Z,15.80
2019-04-27T05:47:18.945Z,15.90
2019-04-27T05:49:52.080Z,16.00
2019-04-27T05:52:29.494Z,15.90
2019-04-27T05:54:59.367Z,15.90
2019-04-27T05:57:31.471Z,15.80
2019-04-27T06:00:02.212Z,15.80
2019-04-27T06:02:31.530Z,15.90
2019-04-27T06:05:00.849Z,15.80
2019-04-27T06:07:30.202Z,15.80
2019-04-27T06:10:00.025Z,15.70
2019-04-27T06:12:29.925Z,15.60
2019-04-27T06:15:00.167Z,15.60
2019-04-27T06:17:30.184Z,15.60
2019-04-27T06:19:59.967Z,15.70
2019-04-27T06:22:30.371Z,15.70
2019-04-27T06:25:00.382Z,15.70
2019-04-27T06:27:30.607Z,15.70
2019-04-27T06:30:00.754Z,15.80
2019-04-27T06:32:30.638Z,15.70
2019-04-27T06:35:00.119Z,15.70
2019-04-27T06:37:31.211Z,15.80
2019-04-27T06:40:00.998Z,15.70
2019-04-27T06:42:31.294Z,15.80
2019-04-27T06:45:01.907Z,15.80
2019-04-27T06:47:31.338Z,15.70
2019-04-27T06:50:00.825Z,15.80
2019-04-27T06:52:30.278Z,15.90
2019-04-27T06:55:00.658Z,16.00
2019-04-27T06:57:30.218Z,16.10
2019-04-27T06:59:59.655Z,16.00
2019-04-27T07:02:29.257Z,16.00
2019-04-27T07:05:02.963Z,15.90
2019-04-27T07:07:32.497Z,15.70
2019-04-27T07:10:01.969Z,15.70
2019-04-27T07:12:31.443Z,15.70
2019-04-27T07:15:00.999Z,15.60
2019-04-27T07:17:30.710Z,15.70
2019-04-27T07:20:00.200Z,15.70
2019-04-27T07:22:30.098Z,15.60
2019-04-27T07:24:59.542Z,15.50
2019-04-27T07:27:31.314Z,15.50
2019-04-27T07:30:01.832Z,15.60
2019-04-27T07:32:31.485Z,15.60
2019-04-27T07:35:00.943Z,15.60
2019-04-27T07:37:30.424Z,15.60
2019-04-27T07:40:00.277Z,15.50
2019-04-27T07:42:32.203Z,15.40
2019-04-27T07:45:09.374Z,15.50
2019-04-27T07:47:42.439Z,15.40
2019-04-27T07:50:11.844Z,15.30
2019-04-27T07:52:41.597Z,15.30
2019-04-27T07:55:12.241Z,15.10
2019-04-27T07:57:42.497Z,15.20
2019-04-27T08:00:14.516Z,15.20
2019-04-27T08:02:48.645Z,15.20
2019-04-27T08:05:24.876Z,15.10
2019-04-27T08:07:56.280Z,15.10
2019-04-27T08:10:29.203Z,15.10
2019-04-27T08:13:02.077Z,15.00
2019-04-27T08:15:32.286Z,15.00
2019-04-27T08:18:04.438Z,15.10
2019-04-27T08:20:34.990Z,15.10
2019-04-27T08:23:05.848Z,15.20
2019-04-27T08:25:36.035Z,15.20
2019-04-27T08:28:30.455Z,15.20
2019-04-27T08:31:08.963Z,15.30
2019-04-27T08:33:38.947Z,15.10
2019-04-27T08:36:14.901Z,15.20
2019-04-27T08:38:44.391Z,15.20
2019-04-27T08:41:14.734Z,15.20
2019-04-27T08:43:45.181Z,15.20
2019-04-27T08:46:14.718Z,15.30
2019-04-27T08:48:45.759Z,15.30
2019-04-27T08:51:16.461Z,15.20
2019-04-27T08:53:47.143Z,15.10
2019-04-27T08:56:19.371Z,15.20
2019-04-27T08:58:51.070Z,15.40
2019-04-27T09:01:21.299Z,15.50
2019-04-27T09:03:52.065Z,15.50
2019-04-27T09:06:22.508Z,15.50
2019-04-27T09:08:59.287Z,15.60
2019-04-27T09:11:53.511Z,15.60
2019-04-27T09:14:31.170Z,15.70
2019-04-27T09:17:19.732Z,15.60
2019-04-27T09:20:13.223Z,15.60
2019-04-27T09:22:43.278Z,15.70
2019-04-27T09:25:13.022Z,15.80
2019-04-27T09:27:42.993Z,15.80
2019-04-27T09:30:13.352Z,15.80
2019-04-27T09:32:43.840Z,15.80
2019-04-27T09:35:15.835Z,15.80
2019-04-27T09:37:48.561Z,15.80
2019-04-27T09:40:20.013Z,15.80
2019-04-27T09:42:50.676Z,15.80
2019-04-27T09:45:21.598Z,15.90
2019-04-27T09:47:51.503Z,15.80
2019-04-27T09:50:23.169Z,15.70
2019-04-27T09:52:53.085Z,15.70
2019-04-27T09:55:22.934Z,15.80
2019-04-27T09:57:52.784Z,15.80
2019-04-27T10:00:24.962Z,16.10
2019-04-27T10:02:56.442Z,16.10
2019-04-27T10:05:26.762Z,16.20
2019-04-27T10:07:58.893Z,16.20
2019-04-27T10:10:29.792Z,16.30
2019-04-27T10:12:59.539Z,16.20
2019-04-27T10:15:30.684Z,16.10
2019-04-27T10:18:06.947Z,16.10
2019-04-27T10:20:41.210Z,16.10
2019-04-27T10:23:12.344Z,16.00
2019-04-27T10:25:47.951Z,16.00
2019-04-27T10:28:21.542Z,16.00
2019-04-27T10:30:52.059Z,16.00
2019-04-27T10:33:25.848Z,15.90
2019-04-27T10:35:56.613Z,15.90
2019-04-27T10:38:30.041Z,15.80
2019-04-27T10:41:07.798Z,15.70
2019-04-27T10:43:40.282Z,15.80
2019-04-27T10:50:01.618Z,15.80
2019-04-27T10:52:35.080Z,15.70
2019-04-27T10:55:06.486Z,15.70
2019-04-27T10:58:03.658Z,15.70
2019-04-27T11:00:40.110Z,15.60
2019-04-27T11:03:11.276Z,15.60
2019-04-27T11:06:03.191Z,15.50
2019-04-27T11:08:33.046Z,15.60
2019-04-27T11:11:03.014Z,15.50
2019-04-27T11:13:38.236Z,15.40
2019-04-27T11:16:13.851Z,15.40
2019-04-27T11:18:43.756Z,15.30
2019-04-27T11:21:28.771Z,15.30
2019-04-27T11:23:58.703Z,15.20
2019-04-27T11:26:27.973Z,15.20
2019-04-27T11:28:57.403Z,15.20
2019-04-27T11:31:26.864Z,15.20
2019-04-27T11:33:56.893Z,15.10
2019-04-27T11:36:37.929Z,15.10
2019-04-27T11:39:13.420Z,15.00
2019-04-27T11:41:42.675Z,15.10
2019-04-27T11:44:12.079Z,15.20
2019-04-27T11:46:41.778Z,15.10
2019-04-27T11:49:11.149Z,15.00
2019-04-27T11:51:40.491Z,14.90
2019-04-27T11:54:12.077Z,14.70
2019-04-27T11:56:41.385Z,14.60
2019-04-27T11:59:10.643Z,14.50
2019-04-27T12:01:39.974Z,14.60
2019-04-27T12:04:09.369Z,14.50
2019-04-27T12:06:38.732Z,14.50
2019-04-27T12:09:09.435Z,14.50
2019-04-27T12:11:39.349Z,14.60
2019-04-27T12:14:08.722Z,14.60
2019-04-27T12:16:39.704Z,14.60
2019-04-27T12:19:09.305Z,14.50
2019-04-27T12:21:39.118Z,14.40
2019-04-27T12:24:08.858Z,14.40
2019-04-27T12:26:48.474Z,14.50
2019-04-27T12:29:21.102Z,14.60
2019-04-27T12:31:52.035Z,14.60
2019-04-27T12:34:22.715Z,14.70
2019-04-27T12:36:53.539Z,14.70
2019-04-27T12:39:23.053Z,14.70
2019-04-27T12:41:52.448Z,14.60
2019-04-27T12:44:21.790Z,14.70
2019-04-27T12:46:51.711Z,14.70
2019-04-27T12:49:21.060Z,14.60
2019-04-27T12:51:50.447Z,14.70
2019-04-27T12:54:31.598Z,14.70
2019-04-27T12:57:31.373Z,14.70
2019-04-27T13:00:06.540Z,14.70
2019-04-27T13:02:35.969Z,14.50
2019-04-27T13:05:05.788Z,14.50
2019-04-27T13:07:35.159Z,14.50
2019-04-27T13:10:05.699Z,14.50
2019-04-27T13:12:36.719Z,14.50
2019-04-27T13:15:09.934Z,14.50
2019-04-27T13:17:39.290Z,14.30
2019-04-27T13:20:08.873Z,14.40
2019-04-27T13:22:38.259Z,14.40
2019-04-27T13:25:08.011Z,14.40
2019-04-27T13:27:37.445Z,14.30
2019-04-27T13:30:08.553Z,14.30
2019-04-27T13:32:37.926Z,14.40
2019-04-27T13:35:07.670Z,14.40
2019-04-27T13:37:41.724Z,14.30
2019-04-27T13:40:13.191Z,14.20
2019-04-27T13:42:53.564Z,14.10
2019-04-27T13:45:31.478Z,14.00
2019-04-27T13:48:31.971Z,14.10
2019-04-27T13:51:02.929Z,14.10
2019-04-27T13:53:32.237Z,14.20
2019-04-27T13:56:03.239Z,14.30
2019-04-27T13:58:32.503Z,14.30
2019-04-27T14:01:01.852Z,14.30
2019-04-27T14:03:31.201Z,14.30
2019-04-27T14:06:01.158Z,14.30
2019-04-27T14:08:30.890Z,14.30
2019-04-27T14:11:01.250Z,14.20
2019-04-27T14:13:30.825Z,14.30
2019-04-27T14:16:00.077Z,14.30
2019-04-27T14:18:29.423Z,14.20
2019-04-27T14:20:59.247Z,14.20
2019-04-27T14:23:30.675Z,14.30
2019-04-27T14:26:00.416Z,14.30
2019-04-27T14:28:29.954Z,14.30
2019-04-27T14:30:59.312Z,14.30
2019-04-27T14:33:28.581Z,14.20
2019-04-27T14:35:59.417Z,14.20
2019-04-27T14:38:28.816Z,14.20
2019-04-27T14:40:59.368Z,14.20
2019-04-27T14:43:28.714Z,14.10
2019-04-27T14:45:58.394Z,14.20
2019-04-27T14:48:29.315Z,14.10
2019-04-27T14:50:59.090Z,14.00
2019-04-27T14:53:29.161Z,14.00
2019-04-27T14:55:58.577Z,14.00
2019-04-27T14:58:28.317Z,14.10
2019-04-27T15:00:58.497Z,14.10
2019-04-27T15:03:28.102Z,14.10
2019-04-27T15:05:57.607Z,14.10
2019-04-27T15:08:26.863Z,14.20
2019-04-27T15:10:56.346Z,14.20
2019-04-27T15:13:25.687Z,14.20
2019-04-27T15:15:55.033Z,14.20
2019-04-27T15:18:29.584Z,14.30
2019-04-27T15:20:58.498Z,14.30
2019-04-27T15:23:30.853Z,14.30
2019-04-27T15:26:00.402Z,14.30
2019-04-27T15:28:35.342Z,14.20
2019-04-27T15:31:29.390Z,14.30
2019-04-27T15:34:17.063Z,14.30
2019-04-27T15:37:12.552Z,14.20
2019-04-27T15:40:12.623Z,14.20
2019-04-27T15:42:53.259Z,14.20
2019-04-27T15:45:25.319Z,14.00
2019-04-27T15:47:59.956Z,14.00
2019-04-27T15:50:32.180Z,14.00
2019-04-27T15:53:02.884Z,13.90
2019-04-27T15:55:35.105Z,13.80
2019-04-27T15:58:02.375Z,13.80
2019-04-27T16:00:31.963Z,13.80
2019-04-27T16:03:01.581Z,13.80
2019-04-27T16:05:33.354Z,13.80
2019-04-27T16:08:06.246Z,13.70
2019-04-27T16:10:37.301Z,13.70
2019-04-27T16:13:06.869Z,13.60
2019-04-27T16:15:35.592Z,13.60
2019-04-27T16:18:05.003Z,13.50
2019-04-27T16:20:34.413Z,13.50
2019-04-27T16:23:04.406Z,13.50
2019-04-27T16:25:46.120Z,13.40
2019-04-27T16:28:09.686Z,13.30
2019-04-27T16:30:35.847Z,13.20
2019-04-27T16:33:05.550Z,13.20
2019-04-27T16:35:34.897Z,13.20
2019-04-27T16:38:15.468Z,13.20
2019-04-27T16:40:44.799Z,13.20
2019-04-27T16:43:14.110Z,13.20
2019-04-27T16:45:43.486Z,13.20
2019-04-27T16:48:12.818Z,13.20
2019-04-27T16:50:42.130Z,13.10
2019-04-27T16:53:12.604Z,13.10
2019-04-27T16:55:42.023Z,13.00
2019-04-27T16:58:16.035Z,12.90
2019-04-27T17:00:42.839Z,12.90
2019-04-27T17:03:12.137Z,12.90
2019-04-27T17:05:41.323Z,12.90
2019-04-27T17:08:13.929Z,12.90
2019-04-27T17:10:41.737Z,12.90
2019-04-27T17:13:14.560Z,12.90
2019-04-27T17:16:01.324Z,12.80
2019-04-27T17:19:02.331Z,12.80
2019-04-27T17:21:28.482Z,12.80
2019-04-27T17:24:02.760Z,12.80
2019-04-27T17:26:29.261Z,12.90
2019-04-27T17:29:10.959Z,12.90
2019-04-27T17:31:41.700Z,12.80
2019-04-27T17:34:10.992Z,12.80
2019-04-27T17:36:40.376Z,12.80
2019-04-27T17:39:11.616Z,12.70
2019-04-27T17:41:42.097Z,12.70
2019-04-27T17:44:12.673Z,12.70
2019-04-27T17:46:47.055Z,12.70
2019-04-27T17:49:13.748Z,12.80
2019-04-27T17:51:44.339Z,12.80
2019-04-27T17:54:13.762Z,12.70
2019-04-27T17:56:48.811Z,12.80
2019-04-27T17:59:17.317Z,12.80
2019-04-27T18:01:45.046Z,12.80
2019-04-27T18:04:14.416Z,12.80
2019-04-27T18:06:43.911Z,12.70
2019-04-27T18:09:18.786Z,12.70
2019-04-27T18:11:50.331Z,12.70
2019-04-27T18:14:19.432Z,12.70
2019-04-27T18:16:48.784Z,12.70
2019-04-27T18:19:23.501Z,12.70
2019-04-27T18:22:00.859Z,12.60
2019-04-27T18:24:34.994Z,12.70
2019-04-27T18:27:12.676Z,12.70
2019-04-27T18:29:42.549Z,12.60
2019-04-27T18:32:11.869Z,12.50
2019-04-27T18:34:41.188Z,12.60
2019-04-27T18:37:10.689Z,12.70
2019-04-27T18:39:45.338Z,12.60
2019-04-27T18:42:13.683Z,12.60
2019-04-27T18:44:43.020Z,12.60
2019-04-27T18:47:12.336Z,12.60
2019-04-27T18:50:10.882Z,12.60
2019-04-27T18:52:47.546Z,12.70
2019-04-27T18:55:16.603Z,12.60
2019-04-27T18:57:45.885Z,12.60
2019-04-27T19:00:18.269Z,12.60
2019-04-27T19:02:48.250Z,12.50
2019-04-27T19:05:18.822Z,12.50
2019-04-27T19:07:48.555Z,12.50
2019-04-27T19:10:19.226Z,12.50
2019-04-27T19:12:48.655Z,12.40
2019-04-27T19:15:18.427Z,12.50
2019-04-27T19:17:48.959Z,12.50
2019-04-27T19:20:18.796Z,12.50
2019-04-27T19:22:49.069Z,12.40
2019-04-27T19:25:28.803Z,12.50
2019-04-27T19:28:20.157Z,12.40
2019-04-27T19:30:53.802Z,12.50
2019-04-27T19:33:23.071Z,12.50
2019-04-27T19:35:52.313Z,12.50
2019-04-27T19:38:21.970Z,12.50
2019-04-27T19:40:51.231Z,12.50
2019-04-27T19:43:20.553Z,12.40
2019-04-27T19:45:49.931Z,12.50
2019-04-27T19:48:19.170Z,12.50
2019-04-27T19:50:50.424Z,12.60
2019-04-27T19:53:19.492Z,12.50
2019-04-27T19:56:03.950Z,12.60
2019-04-27T19:58:46.940Z,12.60
2019-04-27T20:01:24.198Z,12.60
2019-04-27T20:04:01.360Z,12.60
2019-04-27T20:06:30.742Z,12.60
2019-04-27T20:09:01.759Z,12.60
2019-04-27T20:11:31.489Z,12.50
2019-04-27T20:14:00.882Z,12.50
2019-04-27T20:16:31.750Z,12.50
2019-04-27T20:19:01.489Z,12.60
2019-04-27T20:21:30.992Z,12.40
2019-04-27T20:24:01.738Z,12.40
2019-04-27T20:26:31.048Z,12.30
2019-04-27T20:29:01.502Z,12.30
2019-04-27T20:31:32.554Z,12.30
2019-04-27T20:34:01.930Z,12.40
2019-04-27T20:36:32.146Z,12.30
2019-04-27T20:39:01.444Z,12.20
2019-04-27T20:41:31.908Z,12.20
2019-04-27T20:44:02.348Z,12.20
2019-04-27T20:46:31.798Z,12.20
2019-04-27T20:49:03.584Z,12.30
2019-04-27T20:51:53.093Z,12.30
2019-04-27T20:54:22.053Z,12.30
2019-04-27T20:56:53.577Z,12.30
2019-04-27T20:59:22.263Z,12.20
2019-04-27T21:01:51.963Z,12.20
2019-04-27T21:04:24.582Z,12.20
2019-04-27T21:06:58.321Z,12.20
2019-04-27T21:09:27.708Z,12.20
2019-04-27T21:11:57.010Z,12.20
2019-04-27T21:14:26.313Z,12.20
2019-04-27T21:16:55.634Z,12.20
2019-04-27T21:19:24.981Z,12.20
2019-04-27T21:21:54.336Z,12.20
2019-04-27T21:24:23.681Z,12.20
2019-04-27T21:26:52.995Z,12.20
2019-04-27T21:29:22.271Z,12.30
2019-04-27T21:31:52.053Z,12.30
2019-04-27T21:34:21.544Z,12.30
2019-04-27T21:36:51.160Z,12.30
2019-04-27T21:39:21.692Z,12.30
2019-04-27T21:41:51.742Z,12.20
2019-04-27T21:44:21.805Z,12.30
2019-04-27T21:46:51.953Z,12.30
2019-04-27T21:49:22.824Z,12.30
2019-04-27T21:52:03.615Z,12.30
2019-04-27T21:54:33.911Z,12.30
2019-04-27T21:57:03.257Z,12.30
2019-04-27T21:59:32.447Z,12.30
2019-04-27T22:02:03.379Z,12.30
2019-04-27T22:04:33.320Z,12.40
2019-04-27T22:07:02.749Z,12.40
2019-04-27T22:09:32.038Z,12.40
2019-04-27T22:12:02.515Z,12.40
2019-04-27T22:14:31.984Z,12.40
2019-04-27T22:17:01.307Z,12.40
2019-04-27T22:19:31.261Z,12.30
2019-04-27T22:22:02.313Z,12.20
2019-04-27T22:24:35.195Z,12.10
2019-04-27T22:27:04.610Z,12.10
2019-04-27T22:29:33.856Z,12.20
2019-04-27T22:32:03.287Z,12.20
2019-04-27T22:34:32.545Z,12.10
2019-04-27T22:37:02.669Z,12.10
2019-04-27T22:39:54.235Z,12.00
2019-04-27T22:42:41.635Z,11.90
2019-04-27T22:45:23.822Z,11.90
2019-04-27T22:47:53.059Z,11.80
2019-04-27T22:50:22.348Z,11.80
2019-04-27T22:52:51.606Z,11.70
2019-04-27T22:55:21.961Z,11.70
2019-04-27T22:58:01.643Z,11.70
2019-04-27T23:00:53.274Z,11.60
2019-04-27T23:03:31.268Z,11.60
2019-04-27T23:06:01.416Z,11.60
2019-04-27T23:08:31.247Z,11.60
2019-04-27T23:11:02.508Z,11.60
2019-04-27T23:13:31.697Z,11.60
2019-04-27T23:16:02.644Z,11.60
2019-04-27T23:18:31.961Z,11.60
2019-04-27T23:21:01.622Z,11.60
2019-04-27T23:23:31.104Z,11.50
2019-04-27T23:26:01.828Z,11.50
2019-04-27T23:28:31.464Z,11.50
2019-04-27T23:31:13.350Z,11.50
2019-04-27T23:33:45.944Z,11.50
2019-04-27T23:36:15.205Z,11.50
2019-04-27T23:38:44.456Z,11.50
2019-04-27T23:41:13.904Z,11.50
2019-04-27T23:43:43.165Z,11.50
2019-04-27T23:46:12.541Z,11.50
2019-04-27T23:48:42.067Z,11.50
2019-04-27T23:51:22.499Z,11.50
2019-04-27T23:53:51.777Z,11.50
2019-04-27T23:56:22.541Z,11.50
2019-04-27T23:58:51.894Z,11.40
